Weather at Rollo's Aerodrome

Public forecast

Using degrees Celsius for public forecast. Weather courtesy of forecast.io.

Closest aviation weather report (METAR) to Rollo's Aerodrome

Closest report is Adelaide International Airport, 32.7 nm (60.6 km) W. Retrieved 2021/07/24 13:35 UTC (12 minutes ago):

YPAD 241335Z 22019G29KT 9999 FEW037 SCT060 10/05 Q1007 RF00/0/009/6

Closest aviation forecast (TAF) to Rollo's Aerodrome

Closest forecast is Adelaide International Airport, 32.7 nm (60.6 km) W. Retrieved 2021/07/24 12:00 UTC (2 hours ago):

TAF YPAD 241111Z 2412/2518 26022G32KT 9999 -SHRA SCT025 BKN040 FM241600 27018KT 9999 -SHRA FEW020 SCT035 FM242100 29014KT 9999 NSW FEW020 SCT035 FM250000 31018G28KT 9999 -SHRA SCT020 BKN030 FM250800 29014KT 9999 -SHRA SCT025 BKN045 FM251200 30014KT 9999 NSW SCT015 BKN025 INTER 2412/2414 26030G40KT 3000 SHRAGS BKN010 INTER 2414/2419 25022G35KT 4000 SHRAGS BKN015 INTER 2500/2508 28030G40KT 4000 SHRA BKN015 TEMPO 2514/2518 9999 BKN010